Pagina principale
METAR-TAF:

METAR-TAF

Aeroporti :

Altenstadt, Germania

latitudine: 47-50N, longitudine: 010-52E, altezza: 739 m

Osservazione

Il bollettino è stato emesso 28 minuti fa, alle 19:20 UTC
Vento 7 kt da sud/sud-ovest
Temperature 8°C
Umidità 53%
Pressione 1017 hPa

METAR: ETHA 161920Z AUTO 21007KT //// // ////// 08/M01 Q1017 ///

Ora: 20:48 (19:48 UTC)


TAF: mancante

Osservazioni e previsioni meteorologiche di più di 4000 aeroporti (messaggi METAR e TAF).

Le stazioni disponibili sono rappresentate dai dischi gialli e rossi sulla carta.

Puntare il mouse per vedere il nome della stazione.

Clicca sopra per visualizzare le osservazioni e previsioni meteorologiche.

Per cambiare la mappa : fare clic sui pulsanti verdi con una croce nera per ingrandire, il pulsante verde con un trattino per diminuire, o sulla freccia verde per le mappe adiacenti.


METAR-TAF: